createdAt,value
2019-03-13T00:00:25.403Z,61.32
2019-03-13T00:01:26.295Z,61.99
2019-03-13T00:02:25.638Z,62.84
2019-03-13T00:03:25.383Z,63.32
2019-03-13T00:04:25.387Z,64.56
2019-03-13T00:05:25.473Z,65.04
2019-03-13T00:06:25.379Z,66.63
2019-03-13T00:07:25.633Z,67.48
2019-03-13T00:08:25.606Z,68.15
2019-03-13T00:09:25.618Z,68.63
2019-03-13T00:10:25.609Z,69.29
2019-03-13T00:11:25.348Z,69.2
2019-03-13T00:12:25.334Z,69.01
2019-03-13T00:13:25.577Z,70.15
2019-03-13T00:14:25.328Z,70.53
2019-03-13T00:15:25.566Z,71.2
2019-03-13T00:16:25.559Z,71.2
2019-03-13T00:17:25.305Z,71.48
2019-03-13T00:18:25.297Z,70.92
2019-03-13T00:19:25.544Z,71.26
2019-03-13T00:20:25.293Z,71.45
2019-03-13T00:21:25.283Z,72.02
2019-03-13T00:22:25.280Z,72.69
2019-03-13T00:23:25.270Z,72.69
2019-03-13T00:24:25.515Z,73.17
2019-03-13T00:25:25.506Z,73.65
2019-03-13T00:26:25.504Z,73.93
2019-03-13T00:27:25.499Z,74.69
2019-03-13T00:28:25.532Z,74.94
2019-03-13T00:29:25.245Z,74.84
2019-03-13T00:30:25.485Z,74.94
2019-03-13T00:31:25.494Z,75.32
2019-03-13T00:32:25.468Z,75.7
2019-03-13T00:33:26.583Z,75.51
2019-03-13T00:34:25.451Z,75.04
2019-03-13T00:35:25.229Z,75.42
2019-03-13T00:36:25.257Z,75.7
2019-03-13T00:37:25.434Z,75.23
2019-03-13T00:38:25.177Z,75.38
2019-03-13T00:39:25.193Z,76.04
2019-03-13T00:40:25.415Z,74.8
2019-03-13T00:41:25.408Z,74.43
2019-03-13T00:42:25.400Z,74.52
2019-03-13T00:43:25.152Z,74.14
2019-03-13T00:44:25.147Z,74.52
2019-03-13T00:45:25.379Z,73.82
2019-03-13T00:46:25.125Z,73.91
2019-03-13T00:47:25.129Z,73.63
2019-03-13T00:48:25.362Z,73.15
2019-03-13T00:49:25.374Z,73.06
2019-03-13T00:50:25.108Z,74.01
2019-03-13T00:51:25.358Z,74.29
2019-03-13T00:52:25.337Z,74.39
2019-03-13T00:53:25.078Z,74.29
2019-03-13T00:54:25.097Z,74.48
2019-03-13T00:55:25.063Z,74.67
2019-03-13T00:56:25.059Z,74.29
2019-03-13T00:57:25.296Z,74.29
2019-03-13T00:58:27.847Z,74.48
2019-03-13T00:59:25.035Z,74.2
2019-03-13T01:00:25.293Z,74.63
2019-03-13T01:01:25.288Z,75.53
2019-03-13T01:02:25.279Z,75.21
2019-03-13T01:03:25.012Z,75.3
2019-03-13T01:04:25.258Z,75.68
2019-03-13T01:05:25.303Z,76.16
2019-03-13T01:06:24.990Z,76.73
2019-03-13T01:07:25.239Z,76.44
2019-03-13T01:08:24.979Z,76.82
2019-03-13T01:09:25.254Z,77.01
2019-03-13T01:10:25.218Z,76.92
2019-03-13T01:11:27.195Z,77.49
2019-03-13T01:12:25.196Z,77.68
2019-03-13T01:13:25.185Z,78.16
2019-03-13T01:14:24.939Z,77.77
2019-03-13T01:15:24.925Z,77.87
2019-03-13T01:16:25.252Z,78.25
2019-03-13T01:17:24.908Z,78.11
2019-03-13T01:18:25.146Z,78.44
2019-03-13T01:19:25.148Z,78.16
2019-03-13T01:20:24.880Z,78.25
2019-03-13T01:21:25.122Z,78.88
2019-03-13T01:22:24.869Z,79.06
2019-03-13T01:23:25.121Z,78.78
2019-03-13T01:24:24.850Z,78.69
2019-03-13T01:25:24.845Z,78.69
2019-03-13T01:26:24.845Z,78.5
2019-03-13T01:27:25.094Z,78.4
2019-03-13T01:28:25.081Z,78.21
2019-03-13T01:29:25.088Z,78.4
2019-03-13T01:30:24.829Z,79.06
2019-03-13T01:31:25.057Z,78.78
2019-03-13T01:32:24.796Z,78.88
2019-03-13T01:33:25.046Z,78.88
2019-03-13T01:34:25.032Z,78.69
2019-03-13T01:35:24.782Z,78.88
2019-03-13T01:36:24.766Z,78.97
2019-03-13T01:37:25.017Z,79.06
2019-03-13T01:38:25.027Z,78.97
2019-03-13T01:39:24.746Z,79.35
2019-03-13T01:40:25.007Z,78.88
2019-03-13T01:41:24.737Z,78.78
2019-03-13T01:42:24.990Z,78.88
2019-03-13T01:43:24.965Z,78.78
2019-03-13T01:44:24.939Z,78.88
2019-03-13T01:45:24.718Z,78.69
2019-03-13T01:46:24.929Z,78.21
2019-03-13T01:47:24.682Z,78.4
2019-03-13T01:48:24.669Z,78.69
2019-03-13T01:49:24.662Z,78.5
2019-03-13T01:50:24.668Z,78.88
2019-03-13T01:51:24.657Z,78.3
2019-03-13T01:52:24.880Z,78.59
2019-03-13T01:53:24.895Z,78.21
2019-03-13T01:54:24.616Z,78.21
2019-03-13T01:55:24.858Z,78.21
2019-03-13T01:56:24.847Z,78.21
2019-03-13T01:57:24.841Z,78.02
2019-03-13T14:02:59.131Z,78.42
2019-03-13T14:03:59.082Z,77.95
2019-03-13T14:04:59.323Z,76.04
2019-03-13T14:05:59.323Z,76.33
2019-03-13T14:06:59.324Z,76.71
2019-03-13T14:07:59.327Z,78.33
2019-03-13T14:08:59.298Z,78.04
2019-03-13T14:09:59.293Z,77.47
2019-03-13T14:10:59.045Z,76.81
2019-03-13T14:11:59.311Z,76.61
2019-03-13T14:13:00.639Z,76.61
2019-03-13T14:13:59.273Z,77.95
2019-03-13T14:14:59.285Z,78.33
2019-03-13T14:15:59.263Z,78.04
2019-03-13T14:16:59.352Z,76.81
2019-03-13T14:18:02.969Z,77.66
2019-03-13T14:18:59.003Z,77.28
2019-03-13T14:19:59.234Z,76.04
2019-03-13T14:20:59.244Z,77.76
2019-03-13T14:21:59.243Z,76.9
2019-03-13T14:22:59.223Z,78.1
2019-03-13T14:23:59.212Z,78.38
2019-03-13T14:24:58.963Z,78.33
2019-03-13T14:25:59.211Z,77.56
2019-03-13T14:26:58.954Z,73.57
2019-03-13T14:27:59.188Z,72.71
2019-03-13T14:28:58.956Z,72.81
2019-03-13T14:29:58.933Z,73.1
2019-03-13T14:30:58.923Z,73.85
2019-03-13T14:31:58.927Z,73.66
2019-03-13T14:32:59.165Z,72.33
2019-03-13T14:33:58.908Z,72.75
2019-03-13T14:34:59.199Z,68.18
2019-03-13T14:35:59.147Z,64.56
2019-03-13T14:36:59.152Z,66.66
2019-03-13T14:37:59.148Z,66.94
2019-03-13T14:38:59.158Z,67.51
2019-03-13T14:39:58.882Z,67.8
2019-03-13T14:40:58.882Z,67.32
2019-03-13T14:41:59.137Z,66.4
2019-03-13T14:42:59.125Z,64.5
2019-03-13T14:43:59.108Z,64.21
2019-03-13T14:44:58.857Z,64.02
2019-03-13T14:45:58.857Z,63.64
2019-03-13T14:46:59.110Z,61.45
2019-03-13T14:47:58.837Z,61.13
2019-03-13T14:48:59.087Z,61.61
2019-03-13T14:49:58.837Z,61.8
2019-03-13T14:50:59.071Z,62.46
2019-03-13T14:51:59.072Z,62.18
2019-03-13T14:52:59.169Z,61.04
2019-03-13T14:53:59.071Z,59.54
2019-03-13T14:54:59.142Z,58.69
2019-03-13T14:55:59.070Z,58.4
2019-03-13T14:56:58.814Z,58.21
2019-03-13T14:57:58.802Z,56.59
2019-03-13T14:58:59.051Z,55.83
2019-03-13T14:59:58.797Z,55.44
2019-03-13T15:00:59.022Z,56.4
2019-03-13T15:01:59.024Z,57.73
2019-03-13T15:02:59.012Z,56.4
2019-03-13T15:03:59.016Z,56.11
2019-03-13T15:04:59.007Z,56.78
2019-03-13T15:05:59.023Z,56.68
2019-03-13T15:06:59.004Z,56.02
2019-03-13T15:07:58.990Z,56.46
2019-03-13T15:08:58.986Z,56.46
2019-03-13T15:09:59.472Z,56.75
2019-03-13T15:10:58.975Z,57.13
2019-03-13T15:11:58.976Z,56.75
2019-03-13T15:12:58.720Z,55.7
2019-03-13T15:13:58.732Z,56.65
2019-03-13T15:14:58.971Z,56.94
2019-03-13T15:15:58.957Z,57.23
2019-03-13T15:16:58.952Z,56.46
2019-03-13T15:17:58.955Z,56.27
2019-03-13T15:18:58.942Z,57.04
2019-03-13T15:19:58.933Z,56.85
2019-03-13T15:20:58.930Z,57.7
2019-03-13T15:21:58.931Z,57.89
2019-03-13T15:22:58.918Z,58.94
2019-03-13T15:23:58.907Z,59.42
2019-03-13T15:24:58.907Z,58.94
2019-03-13T15:25:58.758Z,59.7
2019-03-13T15:26:58.917Z,58.56
2019-03-13T15:27:58.888Z,57.6
2019-03-13T15:28:58.971Z,57.89
2019-03-13T15:29:58.873Z,57.42
2019-03-13T15:30:58.887Z,56.85
2019-03-13T15:31:58.623Z,56.75
2019-03-13T15:32:58.876Z,56.37
2019-03-13T15:34:00.772Z,56.37
2019-03-13T15:34:58.854Z,56.37
2019-03-13T15:35:58.600Z,56.46
2019-03-13T15:36:58.865Z,56.37
2019-03-13T15:37:58.838Z,56.65
2019-03-13T15:38:58.592Z,57.8
2019-03-13T15:39:58.826Z,57.8
2019-03-13T15:41:00.496Z,57.42
2019-03-13T15:41:58.823Z,57.42
2019-03-13T15:42:58.563Z,57.42
2019-03-13T15:43:58.818Z,57.6
2019-03-13T15:44:58.550Z,57.99
2019-03-13T15:45:58.548Z,57.7
2019-03-13T15:46:58.793Z,57.7
2019-03-13T15:47:58.780Z,58.37
2019-03-13T15:48:58.577Z,58.84
2019-03-13T15:49:58.528Z,58.84
2019-03-13T15:50:58.777Z,58.65
2019-03-13T15:51:58.766Z,59.23
2019-03-13T15:52:58.539Z,59.13
2019-03-13T15:53:58.511Z,59.8
2019-03-13T15:54:58.533Z,59.42
2019-03-13T15:55:58.514Z,59.51
2019-03-13T15:56:58.519Z,59.51
2019-03-13T15:57:58.494Z,59.51
2019-03-13T15:58:58.779Z,59.61
2019-03-13T15:59:58.490Z,59.89
2019-03-13T16:00:58.490Z,59.7
2019-03-13T16:01:58.725Z,59.8
2019-03-13T16:02:58.740Z,60.08
2019-03-13T16:04:01.463Z,60.18
2019-03-13T16:04:58.446Z,59.61
2019-03-13T16:05:58.688Z,61.42
2019-03-13T16:06:58.695Z,59.99
2019-03-13T16:07:58.731Z,60.08
2019-03-13T16:08:58.703Z,59.99
2019-03-13T16:09:58.727Z,60.08
2019-03-13T16:10:58.422Z,60.75
2019-03-13T16:11:58.670Z,60.18
2019-03-13T16:12:58.435Z,60.85
2019-03-13T16:13:58.410Z,60.94
2019-03-13T16:14:58.499Z,60.75
2019-03-13T16:15:58.479Z,61.22
2019-03-13T16:16:58.631Z,61.04
2019-03-13T16:17:58.657Z,61.13
2019-03-13T16:18:58.380Z,61.77
2019-03-13T16:19:58.373Z,62.62
2019-03-13T16:20:58.379Z,62.05
2019-03-13T16:21:58.611Z,62.62
2019-03-13T16:22:58.354Z,63.48
2019-03-13T16:23:58.374Z,63.39
2019-03-13T16:24:58.598Z,63.48
2019-03-13T16:25:58.596Z,63.96
2019-03-13T16:26:58.343Z,64.81
2019-03-13T16:27:58.321Z,64.43
2019-03-13T16:28:58.319Z,64.62
2019-03-13T16:29:58.553Z,64.05
2019-03-13T16:30:58.551Z,64.81
2019-03-13T16:31:58.546Z,64.62
2019-03-13T16:32:58.294Z,64.81
2019-03-13T16:33:58.539Z,64.24
2019-03-13T16:34:58.316Z,64.05
2019-03-13T16:35:58.528Z,63.96
2019-03-13T16:36:58.517Z,64.24
2019-03-13T16:37:58.270Z,64.15
2019-03-13T16:38:58.540Z,64.43
2019-03-13T16:39:58.524Z,64.43
2019-03-13T16:40:58.500Z,64.43
2019-03-13T16:41:58.274Z,64.15
2019-03-13T16:42:58.301Z,63.57
2019-03-13T16:43:58.245Z,63.86
2019-03-13T16:44:58.233Z,64.34
2019-03-13T16:45:58.514Z,64.34
2019-03-13T16:46:58.471Z,64.53
2019-03-13T16:47:58.455Z,64.81
2019-03-13T16:48:58.201Z,64.62
2019-03-13T16:49:59.055Z,64.43
2019-03-13T16:50:58.429Z,64.34
2019-03-13T16:51:58.180Z,65.19
2019-03-13T16:52:58.453Z,65.48
2019-03-13T16:53:58.423Z,64.43
2019-03-13T16:55:00.953Z,64.9
2019-03-13T16:55:58.216Z,65.38
2019-03-13T16:56:58.417Z,64.34
2019-03-13T16:57:58.476Z,64.15
2019-03-13T16:58:58.384Z,64.15
2019-03-13T17:00:03.223Z,65.35
2019-03-13T17:00:58.154Z,66.11
2019-03-13T17:01:58.129Z,65.16
2019-03-13T17:02:58.364Z,65.35
2019-03-13T17:03:58.368Z,65.45
2019-03-13T17:05:00.604Z,67.16
2019-03-13T17:05:58.373Z,67.63
2019-03-13T17:06:58.120Z,67.54
2019-03-13T17:07:58.356Z,67.16
2019-03-13T17:08:58.073Z,66.49
2019-03-13T17:09:58.334Z,66.49
2019-03-13T17:10:58.310Z,67.35
2019-03-13T17:11:58.084Z,66.68
2019-03-13T17:12:58.313Z,66.78
2019-03-13T17:13:58.303Z,67.16
2019-03-13T17:14:58.280Z,67.35
2019-03-13T17:15:58.279Z,67.63
2019-03-13T17:16:58.277Z,67.54
2019-03-13T17:17:58.259Z,68.3
2019-03-13T17:18:57.997Z,68.68
2019-03-13T17:19:58.026Z,68.59
2019-03-13T17:20:58.234Z,68.59
2019-03-13T17:21:58.230Z,68.68
2019-03-13T17:22:58.230Z,68.87
2019-03-13T17:23:57.973Z,68.96
2019-03-13T17:24:58.209Z,68.59
2019-03-13T17:25:58.199Z,69.25
2019-03-13T17:26:58.198Z,68.87
2019-03-13T17:27:57.940Z,69.73
2019-03-13T17:28:58.193Z,71.15
2019-03-13T17:29:58.196Z,71.72
2019-03-13T17:30:57.924Z,71.72
2019-03-13T17:31:57.923Z,70.87
2019-03-13T17:32:58.180Z,70.36
2019-03-13T17:33:58.151Z,71.02
2019-03-13T17:34:58.136Z,71.59
2019-03-13T17:35:58.139Z,71.22
2019-03-13T17:36:57.882Z,71.78
2019-03-13T17:37:57.873Z,71.5
2019-03-13T17:38:58.112Z,71.88
2019-03-13T17:39:57.862Z,71.88
2019-03-13T17:40:58.111Z,72.16
2019-03-13T17:41:58.091Z,71.97
2019-03-13T17:42:58.086Z,71.78
2019-03-13T17:43:58.084Z,72.83
2019-03-13T17:44:58.074Z,73.02
2019-03-13T17:45:57.812Z,72.74
2019-03-13T17:46:58.054Z,71.88
2019-03-13T17:47:57.805Z,72.83
2019-03-13T17:48:58.039Z,72.07
2019-03-13T17:49:58.033Z,71.78
2019-03-13T17:50:58.032Z,71.88
2019-03-13T17:51:58.026Z,71.97
2019-03-13T17:52:58.045Z,71.12
2019-03-13T17:53:58.002Z,71.78
2019-03-13T17:54:57.993Z,71.5
2019-03-13T17:55:57.747Z,72.45
2019-03-13T17:56:57.987Z,73.3
2019-03-13T17:57:57.732Z,72.35
2019-03-13T17:58:57.720Z,71.78
2019-03-13T17:59:57.960Z,72.07
2019-03-13T18:00:57.714Z,71.69
2019-03-13T18:01:57.714Z,71.12
2019-03-13T18:02:57.940Z,71.5
2019-03-13T18:03:57.945Z,71.69
2019-03-13T18:04:57.934Z,71.88
2019-03-13T18:05:57.674Z,71.59
2019-03-13T18:06:57.932Z,71.78
2019-03-13T18:07:57.905Z,71.78
2019-03-13T18:08:57.657Z,72.07
2019-03-13T18:09:57.893Z,71.69
2019-03-13T18:10:57.665Z,71.78
2019-03-13T18:11:57.624Z,73.21
2019-03-13T18:12:57.620Z,73.49
2019-03-13T18:13:57.906Z,73.11
2019-03-13T18:14:57.852Z,74.35
2019-03-13T18:15:57.604Z,75.87
2019-03-13T18:16:57.844Z,75.4
2019-03-13T18:17:57.848Z,74.73
2019-03-13T18:18:57.581Z,74.44
2019-03-13T18:19:57.578Z,75.3
2019-03-13T18:20:57.821Z,75.02
2019-03-13T18:21:57.561Z,75.4
2019-03-13T18:22:57.825Z,75.59
2019-03-13T18:33:46.705Z,79.06
2019-03-13T18:34:46.935Z,78.69
2019-03-13T18:35:46.930Z,78.82
2019-03-13T18:36:46.664Z,79.06
2019-03-13T18:37:46.662Z,78.5
2019-03-13T18:38:46.703Z,78.53
2019-03-13T18:39:46.888Z,78.88
2019-03-13T18:40:46.624Z,79.06
2019-03-13T18:41:46.875Z,78.63
2019-03-13T18:42:46.615Z,77.97
2019-03-13T18:43:46.940Z,77.77
2019-03-13T18:44:46.902Z,77.36
2019-03-13T18:45:46.590Z,77.73
2019-03-13T18:46:46.821Z,78.3
2019-03-13T18:47:46.576Z,79.06
2019-03-13T18:48:46.802Z,78.88
2019-03-13T18:49:46.803Z,78.3
2019-03-13T18:50:46.793Z,77.92
2019-03-13T18:51:46.826Z,77.83
2019-03-13T18:52:46.774Z,79.92
2019-03-13T18:53:46.578Z,80.49
2019-03-13T18:54:46.504Z,81.63
2019-03-13T18:55:46.744Z,81.16
2019-03-13T18:56:46.503Z,82.2
2019-03-13T18:57:46.496Z,82.39
2019-03-13T18:58:46.758Z,82.68
2019-03-13T18:59:46.471Z,84.2
2019-03-13T19:00:46.709Z,84.1
2019-03-13T19:01:46.705Z,84.58
2019-03-13T19:02:46.699Z,84.95
2019-03-13T19:03:46.489Z,85.34
2019-03-13T19:04:46.439Z,85.43
2019-03-13T19:05:46.754Z,85.62
2019-03-13T19:06:46.422Z,85.15
2019-03-13T19:07:46.662Z,86.29
2019-03-13T19:08:46.692Z,86.1
2019-03-13T19:09:46.639Z,86.38
2019-03-13T19:10:46.638Z,86.19
2019-03-13T19:11:46.647Z,85.86
2019-03-13T19:12:46.615Z,86.29
2019-03-13T19:13:46.612Z,86.38
2019-03-13T19:14:46.370Z,86.72
2019-03-13T19:15:46.608Z,86.63
2019-03-13T19:16:46.351Z,87.01
2019-03-13T19:17:46.576Z,86.63
2019-03-13T19:18:46.565Z,87.38
2019-03-13T19:19:46.562Z,87.19
2019-03-13T19:20:46.319Z,87.86
2019-03-13T19:21:46.540Z,87.57
2019-03-13T19:22:46.303Z,87.95
2019-03-13T19:23:46.627Z,88.43
2019-03-13T19:24:46.520Z,88.71
2019-03-13T19:25:46.546Z,88.05
2019-03-13T19:26:46.508Z,88.81
2019-03-13T19:27:46.507Z,89.19
2019-03-13T19:28:46.492Z,88.9
2019-03-13T19:29:46.481Z,89.38
2019-03-13T19:30:46.523Z,89.47
2019-03-13T19:31:46.466Z,90.42
2019-03-13T19:32:46.464Z,90.9
2019-03-13T19:33:46.201Z,91.56
2019-03-13T19:34:46.459Z,90.8
2019-03-13T19:35:46.203Z,90.33
2019-03-13T19:36:46.431Z,90.05
2019-03-13T19:37:46.421Z,90.23
2019-03-13T19:38:46.166Z,90.42
2019-03-13T19:39:46.399Z,90.33
2019-03-13T19:40:46.400Z,90.66
2019-03-13T19:41:46.395Z,90.71
2019-03-13T19:42:46.388Z,90.66
2019-03-13T19:43:46.376Z,90.8
2019-03-13T19:44:46.357Z,91.38
2019-03-13T19:45:46.363Z,91.85
2019-03-13T19:46:46.347Z,91.66
2019-03-13T19:47:46.083Z,90.99
2019-03-13T19:48:46.329Z,91.33
2019-03-13T19:49:46.072Z,91.99
2019-03-13T19:50:46.330Z,92.13
2019-03-13T19:51:46.385Z,91.75
2019-03-13T19:52:47.487Z,91.66
2019-03-13T19:53:46.289Z,91.85
2019-03-13T19:54:46.326Z,91.38
2019-03-13T19:55:46.309Z,91.19
2019-03-13T19:56:46.267Z,92.51
2019-03-13T19:57:46.028Z,92.8
2019-03-13T19:58:46.269Z,92.51
2019-03-13T19:59:45.995Z,91.85
2019-03-13T20:00:46.230Z,92.28
2019-03-13T20:01:48.893Z,91.94
2019-03-13T20:02:58.964Z,92.61
2019-03-13T20:03:57.427Z,91.19
2019-03-13T20:04:50.040Z,91.71
2019-03-13T20:05:48.266Z,91.28
2019-03-13T20:06:46.178Z,92.23
2019-03-13T20:07:46.533Z,92.13
2019-03-13T20:08:45.930Z,91.66
2019-03-13T20:09:46.219Z,90.71
2019-03-13T20:10:45.909Z,91.04
2019-03-13T20:11:46.144Z,91.52
2019-03-13T20:12:45.894Z,91.52
2019-03-13T20:13:45.886Z,91.42
2019-03-13T20:14:46.124Z,91.33
2019-03-13T20:15:46.118Z,91.47
2019-03-13T20:16:49.010Z,91.14
2019-03-13T20:17:46.095Z,92.09
2019-03-13T20:18:46.095Z,93.08
2019-03-13T20:19:45.831Z,92.71
2019-03-13T20:20:46.096Z,92.9
2019-03-13T20:21:45.813Z,93.37
2019-03-13T20:22:46.054Z,92.99
2019-03-13T20:23:45.806Z,92.9
2019-03-13T20:24:45.871Z,92.23
2019-03-13T20:25:45.787Z,92.9
2019-03-13T20:26:45.780Z,92.71
2019-03-13T20:27:46.021Z,92.61
2019-03-13T20:28:48.568Z,91.85
2019-03-13T20:29:45.996Z,91.66
2019-03-13T20:30:46.002Z,91.47
2019-03-13T20:31:45.981Z,91.56
2019-03-13T20:32:46.100Z,91.89
2019-03-13T20:33:46.001Z,93.08
2019-03-13T20:34:45.997Z,93.37
2019-03-13T20:35:45.714Z,92.99
2019-03-13T20:36:45.927Z,93.27
2019-03-13T20:37:45.931Z,93.56
2019-03-13T20:38:47.223Z,93.65
2019-03-13T20:39:45.979Z,94.32
2019-03-13T20:40:45.655Z,93.84
2019-03-13T20:41:45.895Z,94.32
2019-03-13T20:42:45.891Z,92.61
2019-03-13T20:43:48.351Z,93.08
2019-03-13T20:44:45.627Z,93.27
2019-03-13T20:45:45.875Z,93.65
2019-03-13T20:46:45.853Z,93.75
2019-03-13T20:47:45.600Z,92.9
2019-03-13T20:48:45.589Z,92.9
2019-03-13T20:49:45.969Z,92.51
2019-03-13T20:50:45.825Z,92.9
2019-03-13T20:51:45.821Z,93.27
2019-03-13T20:52:48.287Z,93.84
2019-03-13T20:53:45.949Z,93.94
2019-03-13T20:54:45.850Z,93.84
2019-03-13T20:55:45.805Z,94.32
2019-03-13T20:56:45.780Z,94.23
2019-03-13T20:57:45.512Z,94.51
2019-03-13T20:58:45.527Z,93.94
2019-03-13T20:59:45.511Z,93.65
2019-03-13T21:00:45.490Z,94.13
2019-03-13T21:01:45.740Z,93.75
2019-03-13T21:02:45.485Z,93.75
2019-03-13T21:03:48.311Z,93.46
2019-03-13T21:04:45.712Z,93.75
2019-03-13T21:05:45.466Z,92.8
2019-03-13T21:06:45.462Z,94.03
2019-03-13T21:07:45.679Z,93.84
2019-03-13T21:08:45.693Z,93.08
2019-03-13T21:09:45.468Z,93.27
2019-03-13T21:10:45.693Z,93.65
2019-03-13T21:11:45.650Z,93.75
2019-03-13T21:12:45.415Z,94.42
2019-03-13T21:13:45.636Z,94.51
2019-03-13T21:14:45.630Z,95.17
2019-03-13T21:15:46.113Z,95.17
2019-03-13T21:16:45.619Z,95.36
2019-03-13T21:17:45.368Z,95.27
2019-03-13T21:18:45.621Z,96.98
2019-03-13T21:19:45.393Z,97.45
2019-03-13T21:20:45.590Z,97.74
2019-03-13T21:21:45.577Z,98.31
2019-03-13T21:22:45.586Z,98.02
2019-03-13T21:23:45.576Z,97.83
2019-03-13T21:24:45.296Z,98.12
2019-03-13T21:25:45.303Z,98.59
2019-03-13T21:26:45.552Z,98.5
2019-03-13T21:27:47.634Z,98.97
2019-03-13T21:28:45.296Z,99.73
2019-03-13T21:29:45.266Z,99.99
2019-03-13T21:30:45.501Z,99.99
2019-03-13T21:31:45.258Z,99.99
2019-03-13T21:32:45.485Z,99.99
2019-03-13T21:33:45.499Z,99.99
2019-03-13T21:34:45.488Z,99.99
2019-03-13T21:35:45.491Z,99.99
2019-03-13T21:36:45.209Z,99.99
2019-03-13T21:37:45.481Z,99.99
2019-03-13T21:38:45.202Z,99.99
2019-03-13T21:39:45.204Z,99.99
2019-03-13T21:40:45.423Z,99.99
2019-03-13T21:41:45.444Z,99.99
2019-03-13T21:42:45.412Z,99.99
2019-03-13T21:43:45.561Z,99.99
2019-03-13T21:44:45.161Z,99.99
2019-03-13T21:45:45.142Z,99.99
2019-03-13T21:46:45.439Z,99.99
2019-03-13T21:47:45.455Z,99.99
2019-03-13T21:48:45.395Z,99.99
2019-03-13T21:49:45.109Z,99.99
2019-03-13T21:50:45.343Z,99.99
2019-03-13T21:51:45.352Z,99.99
2019-03-13T21:52:45.336Z,99.99
2019-03-13T21:53:45.324Z,99.99
2019-03-13T21:54:45.326Z,99.99
2019-03-13T21:55:45.418Z,99.99
2019-03-13T21:56:45.053Z,99.99
2019-03-13T21:57:45.332Z,99.99
2019-03-13T21:58:45.278Z,99.99
2019-03-13T21:59:45.019Z,99.99
2019-03-13T22:00:45.030Z,99.99
2019-03-13T22:01:45.327Z,99.99
2019-03-13T22:02:45.256Z,99.99
2019-03-13T22:03:44.999Z,99.99
2019-03-13T22:04:45.231Z,99.99
2019-03-13T22:05:45.214Z,99.99
2019-03-13T22:06:45.206Z,99.99
2019-03-13T22:07:45.514Z,99.99
2019-03-13T22:08:45.195Z,99.99
2019-03-13T22:09:45.227Z,99.99
2019-03-13T22:10:45.177Z,99.99
2019-03-13T22:11:45.176Z,99.99
2019-03-13T22:12:45.163Z,99.99
2019-03-13T22:13:45.147Z,99.99
2019-03-13T22:14:45.161Z,99.99
2019-03-13T22:15:45.200Z,99.99
2019-03-13T22:16:45.139Z,99.99
2019-03-13T22:17:45.143Z,99.99
2019-03-13T22:18:45.106Z,99.99
2019-03-13T22:19:45.120Z,99.99
2019-03-13T22:20:45.095Z,99.99
2019-03-13T22:21:44.835Z,99.99
2019-03-13T22:22:45.078Z,99.99
2019-03-13T22:23:44.819Z,99.99
2019-03-13T22:24:44.850Z,99.99
2019-03-13T22:25:45.361Z,99.99
2019-03-13T22:26:44.972Z,99.99
2019-03-13T22:27:45.113Z,99.99
2019-03-13T22:28:45.032Z,99.99
2019-03-13T22:29:45.038Z,99.99
2019-03-13T22:30:45.011Z,99.99
2019-03-13T22:31:44.781Z,99.99
2019-03-13T22:32:44.769Z,99.99
2019-03-13T23:03:51.668Z,99.99
2019-03-13T23:04:51.208Z,99.99
2019-03-13T23:05:51.382Z,99.99
2019-03-13T23:06:51.268Z,99.99
2019-03-13T23:07:51.329Z,99.99
2019-03-13T23:08:51.178Z,99.99
2019-03-13T23:09:51.126Z,99.99
2019-03-13T23:10:51.103Z,99.99
2019-03-13T23:11:51.097Z,99.99
2019-03-13T23:12:51.073Z,99.99
2019-03-13T23:13:51.321Z,99.99
2019-03-13T23:14:51.060Z,99.99
2019-03-13T23:15:51.046Z,99.99
2019-03-13T23:16:51.029Z,99.99
2019-03-13T23:17:51.278Z,99.99
2019-03-13T23:18:51.258Z,99.99
2019-03-13T23:19:51.003Z,99.99
2019-03-13T23:20:50.998Z,99.99
2019-03-13T23:21:51.244Z,99.99
2019-03-13T23:22:50.970Z,99.99
2019-03-13T23:23:50.955Z,99.99
2019-03-13T23:24:51.196Z,99.99
2019-03-13T23:25:51.200Z,99.99
2019-03-13T23:26:51.202Z,99.99
2019-03-13T23:27:51.168Z,99.99
2019-03-13T23:28:51.170Z,99.99
2019-03-13T23:29:51.152Z,99.99
2019-03-13T23:30:50.898Z,99.99
2019-03-13T23:31:50.897Z,99.99
2019-03-13T23:32:51.141Z,99.99
2019-03-13T23:33:51.129Z,99.99
2019-03-13T23:34:50.877Z,99.99
2019-03-13T23:35:51.129Z,99.99
2019-03-13T23:36:50.853Z,99.99
2019-03-13T23:37:50.869Z,99.99
2019-03-13T23:38:51.071Z,99.99
2019-03-13T23:39:51.069Z,99.99
2019-03-13T23:40:51.050Z,99.99
2019-03-13T23:41:51.283Z,99.99
2019-03-13T23:42:51.077Z,99.99
2019-03-13T23:43:50.780Z,99.99
2019-03-13T23:44:50.771Z,99.99
2019-03-13T23:45:51.017Z,99.99
2019-03-13T23:46:51.038Z,99.99
2019-03-13T23:47:51.000Z,99.99
2019-03-13T23:48:51.040Z,99.99
2019-03-13T23:49:50.969Z,99.99
2019-03-13T23:50:50.975Z,99.99
2019-03-13T23:51:50.966Z,99.99
2019-03-13T23:52:50.713Z,99.99
2019-03-13T23:53:50.944Z,99.99
2019-03-13T23:54:50.964Z,99.99
2019-03-13T23:55:50.688Z,99.99
2019-03-13T23:56:50.938Z,99.99
2019-03-13T23:57:50.677Z,99.99
2019-03-13T23:58:50.916Z,99.99
2019-03-13T23:59:50.659Z,99.99
